Airfield :
LOGIN :

Register | Disclaimer

   EN    FR    IT 

 










Legend :    VFR   Marginal VFR   IFR   Intensive IFR   Very Intensive IFR
Visi :
Ceiling :
>= 8 km
>= 3000ft
5 to 8 km
1000 to 3000 ft
1500m to 5 km
500 to 1000 ft
800 to 1500m
200 to 500 ft
< 800m
< 200 ft
Symbols :   Thunderstorms  Fog  Heavy snow  Heavy precipitations  Wind > 20 kt
SIGMETs :     Misc.  Thunderstorms  Icing  Turbulence  Mountain Waves  Volcanic Ashes







- Airport Elevation : 256 ft
- IATA code : CFR
- Download approach charts


LFRK - Caen

CURRENT METAR :
  • 250700Z AUTO VRB01KT 3400 BR OVC006 13/12 Q1018 BECMG 9999 NSW BKN015

EXPIRED METARs :
  • 250630Z AUTO VRB03KT 3600 BR OVC007 13/12 Q1018 BECMG 9999 NSW BKN015
  • 250600Z AUTO 35003KT 310V020 3500 BR OVC006 13/12 Q1018 BECMG 9999 NSW BKN015
  • 250530Z AUTO VRB02KT 2900 BR OVC004 13/13 Q1018 BECMG 9999 NSW BKN015
  • 250500Z AUTO VRB02KT 2700 BR OVC003 13/13 Q1018
  • 250430Z AUTO VRB01KT 2100 BR OVC003 13/13 Q1018

Expired Forecast.
Met : +33 2 31 26 68 11
No reported NOTAMs for that airfield.
1 SIGMET reported for the Brest FIR (LFRR) :
 
Embedded thunderstorms
LFRR SIGMET 3 VALID 250600/250800 LFPW
LFRR BREST FIR/UIR EMBD TS OBS WI N4545 W00145 - N4415 W00145 - N4430 W00230 - N4545 W00215 - N4545 W00145 TOP FL380 MOV NNE 20KT NC=



MET'MAP, your aeronautical weather chart ! - Copyright ORBIFLY December 2007 - Disclaimer

ORBIFLY MET'MAP TEAM :

Programming & Development : Alexandra Zaïnal
Concept & Development : Baudouin d'Aumeries
Co-Development & Prog : Marc-Olivier Méhu
Technical & hardware support : Manuel Goepfert

Contact : metmap@orbifly.com




SOURCES & CREDITS :

   NOAA